createdAt,value
2023-03-23T15:59:00.125Z,29.70
2023-03-23T16:01:33.506Z,29.80
2023-03-23T16:04:12.864Z,29.80
2023-03-23T16:06:45.352Z,29.80
2023-03-23T16:09:21.615Z,29.80
2023-03-23T16:11:53.168Z,29.80
2023-03-23T16:14:24.510Z,29.80
2023-03-23T16:16:56.100Z,29.80
2023-03-23T16:19:28.620Z,29.80
2023-03-23T16:21:59.765Z,29.80
2023-03-23T16:24:31.208Z,29.80
2023-03-23T16:27:02.478Z,29.80
2023-03-23T16:32:09.015Z,29.80
2023-03-23T16:34:41.810Z,29.80
2023-03-23T16:37:19.875Z,29.80
2023-03-23T16:39:50.107Z,29.70
2023-03-23T16:42:21.593Z,29.70
2023-03-23T16:44:52.581Z,29.70
2023-03-23T16:47:25.626Z,29.70
2023-03-23T16:49:56.724Z,29.70
2023-03-23T16:52:29.698Z,29.60
2023-03-23T16:55:01.141Z,29.60
2023-03-23T16:57:32.587Z,29.60
2023-03-23T17:00:03.989Z,29.60
2023-03-23T17:02:38.977Z,29.60
2023-03-23T17:05:11.863Z,29.50
2023-03-23T17:07:46.325Z,29.50
2023-03-23T17:10:18.460Z,29.50
2023-03-23T17:12:49.815Z,29.50
2023-03-23T17:15:21.559Z,29.40
2023-03-23T17:17:53.349Z,29.40
2023-03-23T17:20:25.014Z,29.40
2023-03-23T17:22:56.286Z,29.40
2023-03-23T17:25:27.255Z,29.40
2023-03-23T17:28:05.553Z,29.40
2023-03-23T17:30:30.983Z,29.40
2023-03-23T17:33:02.010Z,29.40
2023-03-23T17:35:33.072Z,29.40
2023-03-23T17:38:04.282Z,29.30
2023-03-23T17:40:35.666Z,29.40
2023-03-23T17:43:07.930Z,29.30
2023-03-23T17:45:40.368Z,29.30
2023-03-23T17:48:11.922Z,29.30
2023-03-23T17:50:43.199Z,29.20
2023-03-23T17:53:14.408Z,29.20
2023-03-23T17:55:46.410Z,29.20
2023-03-23T17:58:18.428Z,29.10
2023-03-23T18:00:50.818Z,29.20
2023-03-23T18:03:22.011Z,29.20
2023-03-23T18:05:56.436Z,29.20
2023-03-23T18:08:31.068Z,29.20
2023-03-23T18:11:02.701Z,29.20
2023-03-23T18:13:37.213Z,29.10
2023-03-23T18:16:09.078Z,29.10
2023-03-23T18:18:40.817Z,29.10
2023-03-23T18:21:15.764Z,29.10
2023-03-23T18:23:58.275Z,29.10
2023-03-23T18:26:19.874Z,29.10
2023-03-23T18:28:53.117Z,29.10
2023-03-23T18:31:24.568Z,29.00
2023-03-23T18:33:56.417Z,29.00
2023-03-23T18:36:29.454Z,29.00
2023-03-23T18:39:01.210Z,29.10
2023-03-23T18:41:36.512Z,29.00
2023-03-23T18:44:09.135Z,29.00
2023-03-23T18:46:47.787Z,29.00
2023-03-23T18:49:19.183Z,29.00
2023-03-23T18:51:50.313Z,28.90
2023-03-23T18:54:21.424Z,28.90
2023-03-23T18:56:53.039Z,28.90
2023-03-23T18:59:25.244Z,28.90
2023-03-23T19:01:57.543Z,28.90
2023-03-23T19:04:30.178Z,28.90
2023-03-23T19:07:02.650Z,28.90
2023-03-23T19:09:35.876Z,28.80
2023-03-23T19:12:07.447Z,28.80
2023-03-23T19:14:40.416Z,28.80
2023-03-23T19:17:12.185Z,28.80
2023-03-23T19:19:43.821Z,28.80
2023-03-23T19:22:16.058Z,28.80
2023-03-23T19:24:47.761Z,28.80
2023-03-23T19:27:21.452Z,28.80
2023-03-23T19:29:53.079Z,28.80
2023-03-23T19:32:24.283Z,28.70
2023-03-23T19:34:55.497Z,28.70
2023-03-23T19:37:26.843Z,28.60
2023-03-23T19:39:59.293Z,28.60
2023-03-23T19:45:03.443Z,28.60
2023-03-23T19:47:35.664Z,28.60
2023-03-23T19:50:26.954Z,28.60
2023-03-23T19:52:59.544Z,28.60
2023-03-23T19:55:35.589Z,28.60
2023-03-23T19:58:06.848Z,28.50
2023-03-23T20:00:38.153Z,28.50
2023-03-23T20:03:09.410Z,28.50
2023-03-23T20:05:40.952Z,28.50
2023-03-23T20:08:12.745Z,28.50
2023-03-23T20:10:43.993Z,28.50
2023-03-23T20:13:15.205Z,28.50
2023-03-23T20:15:46.550Z,28.50
2023-03-23T20:18:19.118Z,28.50
2023-03-23T20:20:52.683Z,28.50
2023-03-23T20:23:24.057Z,28.50
2023-03-23T20:25:55.071Z,28.50
2023-03-23T20:28:28.441Z,28.50
2023-03-23T20:31:20.944Z,28.40
2023-03-23T20:33:45.709Z,28.40
2023-03-23T20:36:18.935Z,28.40
2023-03-23T20:38:51.651Z,28.40
2023-03-23T20:41:23.845Z,28.40
2023-03-23T20:43:55.416Z,28.30
2023-03-23T20:46:26.983Z,28.40
2023-03-23T20:48:58.646Z,28.30
2023-03-23T20:51:29.745Z,28.30
2023-03-23T20:54:02.048Z,28.30
2023-03-23T20:56:33.670Z,28.30
2023-03-23T20:59:05.161Z,28.30
2023-03-23T21:01:36.424Z,28.30
2023-03-23T21:04:09.265Z,28.30
2023-03-23T21:06:40.305Z,28.20
2023-03-23T21:09:11.524Z,28.20
2023-03-23T21:11:43.165Z,28.20
2023-03-23T21:14:15.262Z,28.20
2023-03-23T21:16:46.700Z,28.20
2023-03-23T21:19:18.194Z,28.10
2023-03-23T21:21:55.369Z,28.10
2023-03-23T21:24:23.294Z,28.10
2023-03-23T21:26:55.661Z,28.00
2023-03-23T21:29:27.025Z,28.00
2023-03-23T21:34:30.962Z,28.00
2023-03-23T21:37:02.491Z,28.00
2023-03-23T21:39:34.755Z,28.00
2023-03-23T21:42:07.406Z,27.90
2023-03-23T21:44:40.194Z,27.90
2023-03-23T21:47:16.093Z,27.90
2023-03-23T21:49:47.416Z,27.90
2023-03-23T21:52:19.048Z,27.90
2023-03-23T21:54:50.269Z,27.80
2023-03-23T21:57:21.991Z,27.80
2023-03-23T21:59:53.340Z,27.80
2023-03-23T22:02:24.583Z,27.70
2023-03-23T22:07:48.094Z,27.60
2023-03-23T22:10:19.532Z,27.60
2023-03-23T22:12:54.334Z,27.50
2023-03-23T22:15:26.409Z,27.50
2023-03-23T22:18:01.085Z,27.50
2023-03-23T22:20:33.581Z,27.50
2023-03-23T22:23:04.879Z,27.50
2023-03-23T22:25:37.649Z,27.50
2023-03-23T22:33:47.844Z,27.50
2023-03-23T22:36:19.899Z,27.50
2023-03-23T22:38:52.574Z,27.50
2023-03-23T22:41:26.583Z,27.50
2023-03-23T22:43:58.125Z,27.50
2023-03-23T22:49:17.287Z,27.50
2023-03-23T22:51:48.594Z,27.50
2023-03-23T22:54:20.452Z,27.50
2023-03-23T22:56:52.274Z,27.40
2023-03-23T22:59:23.582Z,27.50
2023-03-23T23:01:54.933Z,27.50
2023-03-23T23:04:26.101Z,27.40
2023-03-23T23:07:10.059Z,27.40
2023-03-23T23:12:18.302Z,27.40
2023-03-23T23:14:49.282Z,27.40
2023-03-23T23:17:20.300Z,27.40
2023-03-23T23:19:51.900Z,27.40
2023-03-23T23:22:23.238Z,27.40
2023-03-23T23:27:42.435Z,27.40
2023-03-23T23:30:14.990Z,27.40
2023-03-23T23:32:46.382Z,27.40
2023-03-23T23:35:18.861Z,27.40
2023-03-23T23:37:50.772Z,27.40
2023-03-23T23:40:22.825Z,27.40
2023-03-23T23:42:54.479Z,27.40
2023-03-23T23:45:25.539Z,27.40
2023-03-23T23:47:56.948Z,27.40
2023-03-23T23:50:28.212Z,27.40
2023-03-23T23:53:00.202Z,27.40
2023-03-23T23:55:32.562Z,27.40
2023-03-23T23:58:04.030Z,27.40
